Česky Dansk Deutsch English Español Suomi Français Magyar Italiano Nederlands norsk Polski Português svenska Türkçe

 

Het Weer

Romorantin (Frankrijk)

08:30, 23 augustus 2016 (GMT)

NWNNE
WE
SWSSE
Home            
Romorantin Chateauroux Bourges Tours Orleans Avord Chateaudun Nevers Chartres Le Mans Poitiers Montlucon / Gueret Auxerre Melun Limoges Villacoublay Paris-Orly Toussus Le Noble Angers Alencon Paris Met Center Vichy Paris / Le Bourget

Om een weerknop op uw website of weblog te plaatsen, copieer onderstaande code en plak die in uw pagina. In het eerste vakje staat HTML-code, in het tweede vakje UBB-code.


Add to Google

Details

Wind speed:3 bf, 7 kn, 3.6 m/s, 8.1 miles/h, 13.0 km/h
Wind direction:ESE, 110°
Visibility:Greater than 10000 m, 10 km, 32800 ft, 6.2 miles
Clouds:CAVOC
Temperature:24°C, 75°F
Gefühlte Temperatur:26°C, 78°F
Dew-point:14°C, 57°F
Atmospheric pressure:1024 hPa, 768.1 mmHg, 30.24 inHg, 1.011 atm
Relative humidity:53.6 %
METAR:LFYR 230830Z AUTO 11007KT CAVOK 24/14 Q1024

Snelkoppelingen

Actuele weersinformatie van de hele wereld. Voeg locaties toe met het plus (+) symbool. Deze snelkoppelingen kunnen worden toegevoegd aan Google.

Lid van de Technetium groep

website free tracking
StatCounter NetStat W3C Validator

05-10-2022 05:49:09
astro.technetium.be money.technetium.be phote.technetium.be tafeltennistafel.technetium.be www.ligfiets.net